Etusivu
METAR-TAF:

METAR-TAF

Lentoasemat :

Culiacán, Meksiko

Leveyspiiri: 24-49N, Pituuspiiri: 107-24W, korkeus merenpinnasta: 39 m

Tämänhetkinen sää

Tämä raportti tehtiin 1 tunti ja 56 minuuttia sitten, kello 10.54 UTC
Tuuli 5 kn idästä/koillisesta
Lämpötila 19°C
Kosteus 83%
Ilmanpaine 1015 hPa
Näkyvyys: 16.1 km
selkeää

METAR: MMCL 151054Z 06005KT 10SM SKC 19/16 A2996

Aika: 05:50 (12:50 UTC)

Sääennuste

Tämä raportti tehtiin 7 tuntia ja 36 minuuttia sitten, kello 05.14 UTC
Ennuste voimassa 15. päivästä klo 06 UTC - 16. päivään klo 06 UTC
Tuuli kn pohjoisesta
Näkyvyys: 10 km
selkeää
From 15. päivästä klo 1800 UTC
Tuuli 10 kn lännestä/lounaasta
Näkyvyys: 10 km
selkeää
From 16. päivästä klo 0300 UTC
Tuuli 5 kn lännestä/lounaasta
Näkyvyys: 10 km
selkeää

TAF: MMCL 150514Z 1506/1606 00000KT P6SM SKC FM151800 24010KT P6SM SKC FM160300 24005KT P6SM SKC

Säähavainnot ja -ennusteet yli 4000 lentoasemalta (METAR- ja TAF-raportit).

Käytössä olevat sääasemat on merkitty karttaan keltaisilla ja punaisilla pisteillä.

Aseta hiiri pisteen päälle nähdäksesi sääaseman nimen.

Klikkaa sitten nähdäksesi säähavainnot ja -ennusteet.

Kartan vaihtaminen: klikkaa mustalla rastilla varustettuja vihreitä pisteitä, niin voit zoomata sisään; viivalla varustettua vihreää pistettä, niin voit zoomata ulos tai vihreitä nuolia, niin pääset viereisille kartoille.


METAR-TAF: